Time;durP1;ratioP1;P1;durP2;ratioP2;P2;SDS_P1;SDS_P2;PMS_P1;PMS_P2;Temp;Humidity;BMP_temperature;BMP_pressure;BME280_temperature;BME280_humidity;BME280_pressure;Samples;Min_cycle;Max_cycle;Signal;HPM_P1;HPM_P2
2021/06/12 00:00:34;;;;;;;13.07;10.38;;;;;;;;;;4991957;28;20030;-76
2021/06/12 00:03:03;;;;;;;12.02;10.43;;;;;;;;;;4991598;28;20066;-76
2021/06/12 00:05:28;;;;;;;12.73;11.25;;;;;;;;;;4990489;28;20042;-76
2021/06/12 00:07:54;;;;;;;16.38;11.43;;;;;;;;;;4991660;28;20030;-77
2021/06/12 00:10:24;;;;;;;12.05;10.65;;;;;;;;;;4991294;28;20034;-75
2021/06/12 00:12:51;;;;;;;12.90;10.82;;;;;;;;;;4990220;28;20033;-76
2021/06/12 00:15:20;;;;;;;13.15;11.25;;;;;;;;;;4991023;28;20120;-77
2021/06/12 00:17:46;;;;;;;14.05;10.32;;;;;;;;;;4990068;28;20038;-77
2021/06/12 00:20:16;;;;;;;14.90;10.98;;;;;;;;;;4991087;28;20034;-77
2021/06/12 00:22:43;;;;;;;13.80;11.02;;;;;;;;;;4990064;28;20038;-76
2021/06/12 00:25:10;;;;;;;10.95;9.85;;;;;;;;;;4989720;28;20494;-76
2021/06/12 00:27:39;;;;;;;14.32;10.27;;;;;;;;;;4990533;28;20461;-74
2021/06/12 00:30:07;;;;;;;10.68;9.57;;;;;;;;;;4989555;28;20121;-76
2021/06/12 00:32:33;;;;;;;13.90;10.35;;;;;;;;;;4990997;28;20030;-76
2021/06/12 00:34:58;;;;;;;13.18;10.30;;;;;;;;;;4989756;28;20081;-75
2021/06/12 00:37:25;;;;;;;13.60;10.25;;;;;;;;;;4989609;28;20068;-76
2021/06/12 00:39:51;;;;;;;14.10;10.57;;;;;;;;;;4991440;28;20349;-76
2021/06/12 00:42:17;;;;;;;13.75;10.52;;;;;;;;;;4989532;28;20026;-76
2021/06/12 00:44:42;;;;;;;13.68;9.63;;;;;;;;;;4990747;28;20041;-75
2021/06/12 00:47:08;;;;;;;15.63;9.95;;;;;;;;;;4988685;28;20050;-76
2021/06/12 00:49:34;;;;;;;20.08;10.25;;;;;;;;;;4989523;28;20390;-76
2021/06/12 00:51:59;;;;;;;12.70;10.38;;;;;;;;;;4991130;28;20034;-75
2021/06/12 00:54:26;;;;;;;16.02;10.55;;;;;;;;;;4990784;28;20064;-76
2021/06/12 00:56:51;;;;;;;12.85;10.13;;;;;;;;;;4989531;28;20062;-75
2021/06/12 00:59:17;;;;;;;17.58;11.93;;;;;;;;;;4989146;28;20072;-76
2021/06/12 01:01:43;;;;;;;15.30;11.32;;;;;;;;;;4990691;28;20077;-76
2021/06/12 01:04:08;;;;;;;10.63;9.52;;;;;;;;;;4989233;28;20034;-76
2021/06/12 01:06:34;;;;;;;13.73;9.95;;;;;;;;;;4990971;28;20391;-76
2021/06/12 01:08:59;;;;;;;11.02;9.82;;;;;;;;;;4991107;28;20022;-76
2021/06/12 01:11:25;;;;;;;15.18;10.45;;;;;;;;;;4990721;28;20026;-76
2021/06/12 01:14:15;;;;;;;11.75;10.00;;;;;;;;;;4989346;28;20045;-77
2021/06/12 01:16:52;;;;;;;16.98;10.20;;;;;;;;;;4990808;28;20030;-76
2021/06/12 01:19:29;;;;;;;13.70;10.38;;;;;;;;;;4990456;28;20030;-75
2021/06/12 01:22:01;;;;;;;22.33;10.27;;;;;;;;;;4989109;28;20033;-76
2021/06/12 01:24:54;;;;;;;14.60;9.55;;;;;;;;;;4972872;28;20034;-77
2021/06/12 01:27:23;;;;;;;13.52;10.07;;;;;;;;;;4991783;28;20058;-75
2021/06/12 01:30:06;;;;;;;17.30;10.40;;;;;;;;;;4993038;28;20044;-77
2021/06/12 01:32:33;;;;;;;12.20;9.90;;;;;;;;;;4988822;28;20360;-77
2021/06/12 01:35:23;;;;;;;11.48;9.82;;;;;;;;;;4989073;28;20070;-76
2021/06/12 01:37:49;;;;;;;13.90;10.43;;;;;;;;;;4988384;28;20038;-76
2021/06/12 01:40:16;;;;;;;10.43;9.32;;;;;;;;;;4988556;28;20032;-77
2021/06/12 01:42:46;;;;;;;12.20;9.77;;;;;;;;;;4988992;28;20034;-76
2021/06/12 01:45:12;;;;;;;11.98;10.02;;;;;;;;;;4988464;28;20045;-77
2021/06/12 01:47:37;;;;;;;11.55;9.38;;;;;;;;;;4990141;28;20050;-76
2021/06/12 01:50:05;;;;;;;11.45;9.85;;;;;;;;;;4988567;28;20445;-75
2021/06/12 01:52:32;;;;;;;11.25;9.60;;;;;;;;;;4990355;28;20022;-75
2021/06/12 01:55:01;;;;;;;11.65;9.80;;;;;;;;;;4988584;28;20077;-76
2021/06/12 01:57:27;;;;;;;16.77;10.20;;;;;;;;;;4990640;28;20034;-77
2021/06/12 01:59:55;;;;;;;16.45;10.50;;;;;;;;;;4994349;28;20121;-76
2021/06/12 02:02:21;;;;;;;19.13;10.23;;;;;;;;;;4993926;28;20036;-75
2021/06/12 02:04:50;;;;;;;11.13;9.85;;;;;;;;;;4993162;28;20030;-74
2021/06/12 02:07:16;;;;;;;11.80;10.55;;;;;;;;;;4992747;28;20026;-75
2021/06/12 02:09:43;;;;;;;13.60;11.02;;;;;;;;;;4994639;28;20042;-75
2021/06/12 02:12:09;;;;;;;12.90;10.23;;;;;;;;;;4992984;28;20026;-74
2021/06/12 02:14:36;;;;;;;13.55;11.63;;;;;;;;;;4992989;28;20508;-75
2021/06/12 02:17:03;;;;;;;14.85;10.85;;;;;;;;;;4993165;28;20038;-74
2021/06/12 02:19:29;;;;;;;13.30;11.63;;;;;;;;;;4994090;28;20034;-74
2021/06/12 02:21:55;;;;;;;12.52;10.55;;;;;;;;;;4992731;28;20042;-74
2021/06/12 02:24:21;;;;;;;14.60;10.40;;;;;;;;;;4992657;28;20063;-73
2021/06/12 02:26:51;;;;;;;16.10;10.82;;;;;;;;;;4992809;28;20498;-75
2021/06/12 02:29:19;;;;;;;13.07;11.15;;;;;;;;;;4992598;28;20062;-75
2021/06/12 02:31:49;;;;;;;13.02;10.52;;;;;;;;;;4992748;28;20471;-74
2021/06/12 02:34:14;;;;;;;12.35;11.05;;;;;;;;;;4993677;28;20038;-74
2021/06/12 02:36:40;;;;;;;13.43;9.57;;;;;;;;;;4994031;28;20033;-73
2021/06/12 02:39:07;;;;;;;15.93;10.82;;;;;;;;;;4993584;28;20030;-75
2021/06/12 02:41:34;;;;;;;11.50;10.00;;;;;;;;;;4992614;28;20375;-74
2021/06/12 02:43:59;;;;;;;11.45;10.25;;;;;;;;;;4992994;28;20030;-74
2021/06/12 02:46:29;;;;;;;11.25;10.05;;;;;;;;;;4993551;28;20100;-72
2021/06/12 02:48:58;;;;;;;12.43;10.18;;;;;;;;;;4993939;28;20027;-75
2021/06/12 02:51:24;;;;;;;12.65;10.68;;;;;;;;;;4992117;28;20133;-74
2021/06/12 02:53:52;;;;;;;15.48;10.68;;;;;;;;;;4992442;28;20049;-75
2021/06/12 02:56:20;;;;;;;14.88;10.57;;;;;;;;;;4992171;28;20446;-74
2021/06/12 02:58:46;;;;;;;11.70;9.98;;;;;;;;;;4992051;28;20030;-74
2021/06/12 03:01:14;;;;;;;13.65;10.48;;;;;;;;;;4993114;28;20034;-74
2021/06/12 03:03:42;;;;;;;14.18;11.13;;;;;;;;;;4991924;28;20023;-74
2021/06/12 03:06:08;;;;;;;13.40;11.43;;;;;;;;;;4993262;28;20030;-74
2021/06/12 03:08:39;;;;;;;14.27;11.50;;;;;;;;;;4990856;28;20546;-74
2021/06/12 03:11:08;;;;;;;11.75;10.55;;;;;;;;;;4993642;28;20038;-74
2021/06/12 03:13:35;;;;;;;12.98;11.15;;;;;;;;;;4976626;28;20041;-74
2021/06/12 03:16:02;;;;;;;18.70;12.82;;;;;;;;;;4992790;28;20049;-74
2021/06/12 03:18:29;;;;;;;14.02;12.13;;;;;;;;;;4993386;28;20030;-75
2021/06/12 03:20:59;;;;;;;12.93;11.18;;;;;;;;;;4976021;28;20044;-75
2021/06/12 03:23:27;;;;;;;18.35;12.25;;;;;;;;;;4991614;28;20548;-74
2021/06/12 03:25:55;;;;;;;12.85;11.30;;;;;;;;;;4991729;28;20117;-73
2021/06/12 03:28:22;;;;;;;13.40;11.15;;;;;;;;;;4975624;28;20456;-73
2021/06/12 03:30:49;;;;;;;14.65;12.35;;;;;;;;;;4992837;28;20049;-75
2021/06/12 03:33:15;;;;;;;13.88;11.52;;;;;;;;;;4992678;28;20125;-75
2021/06/12 03:35:41;;;;;;;14.27;11.32;;;;;;;;;;4992696;28;20054;-74
2021/06/12 03:38:07;;;;;;;13.50;12.00;;;;;;;;;;4992739;28;20023;-74
2021/06/12 03:40:34;;;;;;;15.40;11.73;;;;;;;;;;4992245;28;20023;-74
2021/06/12 03:43:01;;;;;;;14.93;11.82;;;;;;;;;;4975568;28;20031;-74
2021/06/12 03:45:29;;;;;;;13.98;11.40;;;;;;;;;;4992605;28;20105;-75
2021/06/12 03:47:58;;;;;;;15.10;11.00;;;;;;;;;;4992615;28;20097;-75
2021/06/12 03:50:25;;;;;;;14.45;11.32;;;;;;;;;;4991222;28;20047;-74
2021/06/12 03:52:52;;;;;;;14.07;12.55;;;;;;;;;;4991182;28;20108;-73
2021/06/12 03:55:19;;;;;;;15.50;11.32;;;;;;;;;;4991376;28;20054;-75
2021/06/12 03:57:45;;;;;;;13.20;11.80;;;;;;;;;;4991032;28;20034;-75
2021/06/12 04:00:12;;;;;;;13.75;12.18;;;;;;;;;;4990627;28;20030;-74
2021/06/12 04:02:39;;;;;;;15.48;11.98;;;;;;;;;;4992242;28;20057;-74
2021/06/12 04:05:06;;;;;;;12.32;10.68;;;;;;;;;;4991181;28;20030;-74
2021/06/12 04:07:31;;;;;;;14.00;11.35;;;;;;;;;;4990497;28;20113;-75
2021/06/12 04:09:57;;;;;;;13.10;11.50;;;;;;;;;;4992020;28;20122;-74
2021/06/12 04:12:22;;;;;;;13.02;11.57;;;;;;;;;;4990804;28;20514;-75
2021/06/12 04:14:48;;;;;;;13.85;12.05;;;;;;;;;;4992474;28;20018;-74
2021/06/12 04:17:15;;;;;;;13.02;10.98;;;;;;;;;;4992277;28;20037;-74
2021/06/12 04:19:42;;;;;;;13.55;11.85;;;;;;;;;;4992119;28;20045;-75
2021/06/12 04:22:08;;;;;;;14.55;11.35;;;;;;;;;;4974315;28;20037;-75
2021/06/12 04:24:34;;;;;;;14.02;11.25;;;;;;;;;;4990358;28;20391;-75
2021/06/12 04:27:00;;;;;;;12.30;11.02;;;;;;;;;;4990685;28;20088;-74
2021/06/12 04:29:26;;;;;;;13.82;10.70;;;;;;;;;;4990466;28;20603;-74
2021/06/12 04:31:52;;;;;;;12.65;10.55;;;;;;;;;;4990612;28;20031;-75
2021/06/12 04:34:17;;;;;;;12.63;10.63;;;;;;;;;;4991687;28;20037;-74
2021/06/12 04:36:43;;;;;;;12.13;10.50;;;;;;;;;;4990672;28;20483;-75
2021/06/12 04:39:09;;;;;;;14.85;11.38;;;;;;;;;;4990497;28;20418;-75
2021/06/12 04:41:34;;;;;;;11.90;10.40;;;;;;;;;;4974009;28;20372;-74
2021/06/12 04:44:00;;;;;;;11.85;10.10;;;;;;;;;;4991900;28;20061;-75
2021/06/12 04:46:25;;;;;;;16.40;10.27;;;;;;;;;;4990944;28;20061;-74
2021/06/12 04:48:51;;;;;;;11.38;10.18;;;;;;;;;;4990152;28;20140;-74
2021/06/12 04:51:16;;;;;;;13.48;9.35;;;;;;;;;;4991151;28;20548;-75
2021/06/12 04:53:42;;;;;;;10.95;9.38;;;;;;;;;;4991331;28;20442;-75
2021/06/12 04:56:07;;;;;;;15.15;10.02;;;;;;;;;;4989707;28;20502;-75
2021/06/12 04:58:33;;;;;;;12.40;10.45;;;;;;;;;;4991136;28;20475;-75
2021/06/12 05:00:58;;;;;;;11.52;9.35;;;;;;;;;;4991050;28;20031;-75
2021/06/12 05:03:24;;;;;;;13.18;9.95;;;;;;;;;;4989632;28;20035;-75
2021/06/12 05:05:50;;;;;;;14.73;10.70;;;;;;;;;;4989925;28;20096;-75
2021/06/12 05:08:16;;;;;;;12.32;9.85;;;;;;;;;;4989459;28;20045;-73
2021/06/12 05:10:42;;;;;;;12.52;10.85;;;;;;;;;;4990962;28;20552;-74
2021/06/12 05:13:08;;;;;;;11.55;10.35;;;;;;;;;;4991061;28;20050;-74
2021/06/12 05:15:34;;;;;;;11.35;10.20;;;;;;;;;;4989326;28;20158;-74
2021/06/12 05:18:05;;;;;;;15.90;10.23;;;;;;;;;;4990934;28;20030;-75
2021/06/12 05:20:32;;;;;;;15.65;10.40;;;;;;;;;;4989094;28;20030;-74
2021/06/12 05:22:58;;;;;;;11.65;9.82;;;;;;;;;;4991177;28;20053;-75
2021/06/12 05:25:23;;;;;;;14.23;10.52;;;;;;;;;;4990749;28;20026;-74
2021/06/12 05:27:49;;;;;;;12.13;10.82;;;;;;;;;;4991290;28;20022;-75
2021/06/12 05:30:15;;;;;;;10.73;9.63;;;;;;;;;;4989590;28;20026;-76
2021/06/12 05:32:40;;;;;;;13.68;10.65;;;;;;;;;;4990884;28;20053;-76
2021/06/12 05:35:07;;;;;;;14.18;10.27;;;;;;;;;;4991092;28;20104;-76
2021/06/12 05:37:36;;;;;;;11.20;9.35;;;;;;;;;;4990697;28;20104;-75
2021/06/12 05:40:03;;;;;;;12.60;10.25;;;;;;;;;;4990713;28;20030;-75
2021/06/12 05:42:29;;;;;;;14.77;10.38;;;;;;;;;;4990548;28;20038;-74
2021/06/12 05:44:54;;;;;;;10.60;9.38;;;;;;;;;;4990605;28;20372;-75
2021/06/12 05:47:20;;;;;;;12.63;9.55;;;;;;;;;;4990604;28;20046;-76
2021/06/12 05:49:45;;;;;;;11.43;10.00;;;;;;;;;;4991101;28;20387;-75
2021/06/12 05:52:11;;;;;;;13.25;10.23;;;;;;;;;;4989297;28;20018;-73
2021/06/12 05:54:36;;;;;;;10.38;9.30;;;;;;;;;;4989249;28;20022;-75
2021/06/12 05:57:02;;;;;;;13.07;9.80;;;;;;;;;;4990535;28;20030;-76
2021/06/12 05:59:28;;;;;;;13.43;10.52;;;;;;;;;;4989424;28;20073;-74
2021/06/12 06:01:54;;;;;;;25.13;12.30;;;;;;;;;;4990631;28;20065;-75
2021/06/12 06:04:21;;;;;;;12.52;9.07;;;;;;;;;;4988860;28;20113;-74
2021/06/12 06:06:47;;;;;;;11.45;9.57;;;;;;;;;;4989187;28;20076;-73
2021/06/12 06:09:13;;;;;;;13.90;9.85;;;;;;;;;;4990370;28;20423;-74
2021/06/12 06:11:39;;;;;;;12.88;8.95;;;;;;;;;;4990478;28;20150;-73
2021/06/12 06:14:05;;;;;;;11.65;9.32;;;;;;;;;;4972990;28;20543;-74
2021/06/12 06:16:30;;;;;;;9.73;8.73;;;;;;;;;;4988544;28;20049;-75
2021/06/12 06:18:56;;;;;;;13.52;10.30;;;;;;;;;;4988858;28;20068;-74
2021/06/12 06:21:21;;;;;;;14.57;9.80;;;;;;;;;;4988614;28;20034;-75
2021/06/12 06:23:47;;;;;;;15.35;8.68;;;;;;;;;;4990248;28;20030;-74
2021/06/12 06:26:13;;;;;;;13.88;9.02;;;;;;;;;;4990073;28;20045;-75
2021/06/12 06:28:38;;;;;;;12.38;8.80;;;;;;;;;;4989067;28;20089;-75
2021/06/12 06:31:04;;;;;;;12.10;9.27;;;;;;;;;;4990039;28;20026;-75
2021/06/12 06:33:29;;;;;;;11.90;9.90;;;;;;;;;;4990090;28;20569;-75
2021/06/12 06:35:55;;;;;;;10.43;8.35;;;;;;;;;;4988790;28;20435;-75
2021/06/12 06:38:21;;;;;;;9.93;8.95;;;;;;;;;;4990040;28;20084;-75
2021/06/12 06:40:47;;;;;;;22.42;10.20;;;;;;;;;;4990051;28;20468;-75
2021/06/12 06:43:13;;;;;;;12.57;9.10;;;;;;;;;;4991655;28;20066;-73
2021/06/12 06:45:41;;;;;;;14.00;9.65;;;;;;;;;;4992062;28;20058;-75
2021/06/12 06:48:07;;;;;;;11.43;8.70;;;;;;;;;;4993814;28;20497;-75
2021/06/12 06:50:33;;;;;;;14.65;9.55;;;;;;;;;;4991958;28;20029;-75
2021/06/12 06:52:59;;;;;;;19.17;10.40;;;;;;;;;;4993638;28;20094;-75
2021/06/12 06:55:25;;;;;;;16.00;9.88;;;;;;;;;;4991903;28;20133;-74
2021/06/12 06:57:51;;;;;;;10.73;9.23;;;;;;;;;;4992544;28;20081;-76
2021/06/12 07:00:16;;;;;;;10.05;8.88;;;;;;;;;;4993442;28;20030;-76
2021/06/12 07:02:43;;;;;;;9.75;8.68;;;;;;;;;;4992269;28;20030;-75
2021/06/12 07:05:09;;;;;;;10.75;9.65;;;;;;;;;;4992193;28;20041;-75
2021/06/12 07:07:34;;;;;;;11.00;9.70;;;;;;;;;;4993156;28;20092;-74
2021/06/12 07:10:00;;;;;;;14.27;9.88;;;;;;;;;;4993472;28;20034;-76
2021/06/12 07:12:25;;;;;;;14.23;9.38;;;;;;;;;;4993176;28;20046;-74
2021/06/12 07:14:51;;;;;;;11.55;10.38;;;;;;;;;;4991931;28;20395;-76
2021/06/12 07:17:16;;;;;;;10.65;9.55;;;;;;;;;;4992081;28;20535;-75
2021/06/12 07:19:42;;;;;;;12.30;9.30;;;;;;;;;;4993062;28;20454;-75
2021/06/12 07:22:07;;;;;;;10.48;9.27;;;;;;;;;;4991870;28;20060;-75
2021/06/12 07:24:33;;;;;;;10.43;9.27;;;;;;;;;;4991732;28;20084;-76
2021/06/12 07:26:59;;;;;;;11.07;9.20;;;;;;;;;;4992934;28;20069;-75
2021/06/12 07:29:25;;;;;;;9.90;8.90;;;;;;;;;;4992866;28;20042;-75
2021/06/12 07:31:52;;;;;;;9.27;8.45;;;;;;;;;;4991466;28;20077;-75
2021/06/12 07:34:18;;;;;;;13.68;9.98;;;;;;;;;;4992001;28;20121;-76
2021/06/12 07:36:44;;;;;;;14.32;9.45;;;;;;;;;;4975732;28;20022;-76
2021/06/12 07:39:10;;;;;;;14.55;10.18;;;;;;;;;;4991756;28;20030;-75
2021/06/12 07:41:37;;;;;;;10.80;9.10;;;;;;;;;;4991538;28;20045;-74
2021/06/12 07:44:03;;;;;;;11.15;8.95;;;;;;;;;;4993407;28;20041;-74
2021/06/12 07:46:29;;;;;;;9.50;8.60;;;;;;;;;;4991560;28;20050;-75
2021/06/12 07:48:54;;;;;;;12.70;10.18;;;;;;;;;;4991730;28;20505;-75
2021/06/12 07:51:20;;;;;;;10.85;8.60;;;;;;;;;;4991579;28;20062;-76
2021/06/12 07:53:45;;;;;;;12.68;9.75;;;;;;;;;;4992109;28;20034;-76
2021/06/12 07:56:11;;;;;;;9.88;8.82;;;;;;;;;;4992880;28;20026;-76
2021/06/12 07:58:36;;;;;;;10.50;9.38;;;;;;;;;;4992761;28;20037;-76
2021/06/12 08:01:02;;;;;;;12.57;9.35;;;;;;;;;;4992305;28;20130;-76
2021/06/12 08:03:30;;;;;;;11.02;9.35;;;;;;;;;;4991413;28;20027;-74
2021/06/12 08:05:56;;;;;;;10.13;9.13;;;;;;;;;;4991393;28;20499;-74
2021/06/12 08:08:25;;;;;;;10.38;9.25;;;;;;;;;;4991375;28;20042;-76
2021/06/12 08:10:50;;;;;;;10.10;9.20;;;;;;;;;;4991321;28;20487;-75
2021/06/12 08:13:16;;;;;;;12.82;8.65;;;;;;;;;;4991116;28;20064;-75
2021/06/12 08:15:42;;;;;;;8.95;8.15;;;;;;;;;;4991420;28;20058;-75
2021/06/12 08:18:09;;;;;;;17.98;12.05;;;;;;;;;;4991555;28;20027;-76
2021/06/12 08:20:35;;;;;;;22.00;12.10;;;;;;;;;;4990878;28;20220;-75
2021/06/12 08:23:00;;;;;;;8.68;7.70;;;;;;;;;;4991071;28;20113;-75
2021/06/12 08:25:26;;;;;;;11.20;10.10;;;;;;;;;;4991903;28;20097;-75
2021/06/12 08:27:53;;;;;;;9.30;8.30;;;;;;;;;;4992276;28;20038;-75
2021/06/12 08:30:19;;;;;;;8.43;7.43;;;;;;;;;;4990537;28;20034;-74
2021/06/12 08:32:44;;;;;;;14.98;8.00;;;;;;;;;;4991819;28;20030;-75
2021/06/12 08:35:10;;;;;;;9.57;7.68;;;;;;;;;;4991126;28;20034;-75
2021/06/12 08:37:36;;;;;;;9.88;7.93;;;;;;;;;;4992163;28;20030;-76
2021/06/12 08:40:03;;;;;;;10.13;7.47;;;;;;;;;;4991912;28;20037;-75
2021/06/12 08:42:29;;;;;;;10.10;8.35;;;;;;;;;;4990327;28;20121;-75
2021/06/12 08:44:56;;;;;;;8.32;7.50;;;;;;;;;;4991894;28;20552;-75
2021/06/12 08:47:22;;;;;;;10.15;7.60;;;;;;;;;;4990053;28;20072;-74
2021/06/12 08:49:48;;;;;;;12.30;8.82;;;;;;;;;;4990818;28;20447;-74
2021/06/12 08:52:15;;;;;;;8.18;7.38;;;;;;;;;;4991489;28;20033;-75
2021/06/12 08:54:41;;;;;;;9.68;8.77;;;;;;;;;;4990050;28;20029;-75
2021/06/12 08:57:11;;;;;;;8.60;7.80;;;;;;;;;;4990072;28;20029;-75
2021/06/12 08:59:37;;;;;;;8.73;7.93;;;;;;;;;;4990288;28;20022;-76
2021/06/12 09:02:04;;;;;;;8.65;7.75;;;;;;;;;;4990223;28;20030;-76
2021/06/12 09:04:37;;;;;;;8.88;7.13;;;;;;;;;;4991908;28;20061;-74
2021/06/12 09:07:19;;;;;;;12.07;7.82;;;;;;;;;;4990892;28;20038;-74
2021/06/12 09:09:46;;;;;;;11.48;8.10;;;;;;;;;;4989740;28;20030;-75
2021/06/12 09:12:12;;;;;;;9.45;8.00;;;;;;;;;;4991598;28;20032;-75
2021/06/12 09:14:38;;;;;;;14.85;7.57;;;;;;;;;;4990441;28;20022;-75
2021/06/12 09:17:03;;;;;;;11.15;8.43;;;;;;;;;;4990008;28;20037;-75
2021/06/12 09:19:38;;;;;;;9.00;8.10;;;;;;;;;;4991475;28;20026;-75
2021/06/12 09:22:06;;;;;;;8.90;7.63;;;;;;;;;;4989815;28;20026;-76
2021/06/12 09:24:37;;;;;;;10.05;6.97;;;;;;;;;;4989108;28;20032;-76
2021/06/12 09:27:13;;;;;;;10.88;6.88;;;;;;;;;;4973402;28;20038;-77
2021/06/12 09:29:47;;;;;;;11.35;7.07;;;;;;;;;;4989010;28;20026;-76
2021/06/12 09:32:21;;;;;;;7.55;6.47;;;;;;;;;;4989039;28;20022;-77
2021/06/12 09:34:55;;;;;;;11.15;6.95;;;;;;;;;;4988580;28;20030;-77
2021/06/12 09:37:27;;;;;;;9.18;6.38;;;;;;;;;;4988854;28;20406;-77
2021/06/12 09:40:15;;;;;;;9.95;6.30;;;;;;;;;;4988803;28;20287;-76
2021/06/12 09:42:55;;;;;;;8.52;7.47;;;;;;;;;;4988521;28;20472;-77
2021/06/12 09:45:30;;;;;;;7.93;6.50;;;;;;;;;;4989148;28;20078;-77
2021/06/12 09:48:11;;;;;;;8.68;6.82;;;;;;;;;;4990274;28;20125;-78
2021/06/12 09:50:38;;;;;;;8.68;5.88;;;;;;;;;;4990164;28;20023;-77
2021/06/12 09:53:20;;;;;;;6.75;6.03;;;;;;;;;;4989041;28;20147;-77
2021/06/12 09:55:46;;;;;;;8.63;5.93;;;;;;;;;;4988754;28;20076;-76
2021/06/12 09:58:13;;;;;;;6.40;5.82;;;;;;;;;;4990660;28;20027;-77
2021/06/12 10:00:41;;;;;;;7.07;6.15;;;;;;;;;;4990083;28;20120;-77
2021/06/12 10:03:32;;;;;;;7.25;5.10;;;;;;;;;;4989751;28;20037;-76
2021/06/12 10:06:16;;;;;;;6.68;5.30;;;;;;;;;;4989148;28;20065;-78
2021/06/12 10:08:49;;;;;;;10.15;5.07;;;;;;;;;;4988779;28;20303;-76
2021/06/12 10:11:16;;;;;;;6.25;4.95;;;;;;;;;;4990185;28;20046;-77
2021/06/12 10:13:46;;;;;;;5.90;4.68;;;;;;;;;;4988449;28;20054;-77
2021/06/12 10:16:13;;;;;;;5.25;4.50;;;;;;;;;;4988815;28;20117;-78
2021/06/12 10:18:40;;;;;;;5.30;4.75;;;;;;;;;;4991820;28;20463;-77
2021/06/12 10:21:16;;;;;;;7.20;4.68;;;;;;;;;;4993654;28;20395;-78
2021/06/12 10:23:44;;;;;;;5.05;4.65;;;;;;;;;;4993255;28;20323;-78
2021/06/12 10:26:13;;;;;;;10.15;5.32;;;;;;;;;;4991807;28;20030;-76
2021/06/12 10:28:39;;;;;;;7.72;4.60;;;;;;;;;;4991981;28;20458;-78
2021/06/12 10:31:20;;;;;;;5.63;4.10;;;;;;;;;;4991977;28;20027;-76
2021/06/12 10:33:48;;;;;;;5.78;4.10;;;;;;;;;;4991978;28;20064;-77
2021/06/12 10:36:25;;;;;;;5.78;4.13;;;;;;;;;;4992081;28;20038;-77
2021/06/12 10:38:52;;;;;;;4.80;4.00;;;;;;;;;;4991926;28;20461;-78
2021/06/12 10:41:18;;;;;;;5.28;3.55;;;;;;;;;;4991983;28;20030;-76
2021/06/12 10:43:44;;;;;;;6.88;3.50;;;;;;;;;;4993408;28;20106;-77
2021/06/12 10:46:12;;;;;;;10.18;4.03;;;;;;;;;;4991358;28;20128;-77
2021/06/12 10:48:43;;;;;;;4.28;3.80;;;;;;;;;;4991880;28;20442;-76
2021/06/12 10:51:36;;;;;;;5.45;3.58;;;;;;;;;;4993085;28;20022;-77
2021/06/12 10:54:20;;;;;;;9.65;3.50;;;;;;;;;;4991740;28;20125;-78
2021/06/12 10:56:57;;;;;;;4.10;3.67;;;;;;;;;;4992842;28;20358;-77
2021/06/12 11:00:00;;;;;;;4.35;4.00;;;;;;;;;;4992909;28;20035;-78
2021/06/12 11:07:26;;;;;;;3.90;3.45;;;;;;;;;;4992876;28;20030;-78
2021/06/12 11:09:53;;;;;;;6.93;4.32;;;;;;;;;;4993127;28;20022;-77
2021/06/12 11:12:19;;;;;;;4.00;3.60;;;;;;;;;;4992695;28;20026;-77
2021/06/12 11:14:58;;;;;;;7.43;4.40;;;;;;;;;;4992354;28;20463;-76
2021/06/12 11:17:25;;;;;;;4.85;3.65;;;;;;;;;;4992882;28;20101;-76
2021/06/12 11:19:59;;;;;;;6.90;3.47;;;;;;;;;;4991545;28;20613;-76
2021/06/12 11:22:50;;;;;;;5.10;3.83;;;;;;;;;;4992939;28;20041;-75
2021/06/12 11:25:16;;;;;;;7.75;3.80;;;;;;;;;;4991388;28;20046;-77
2021/06/12 11:27:53;;;;;;;4.45;4.03;;;;;;;;;;4992170;28;20156;-77
2021/06/12 11:30:19;;;;;;;4.28;3.85;;;;;;;;;;4992088;28;20106;-78
2021/06/12 11:33:01;;;;;;;5.20;3.53;;;;;;;;;;4992321;28;20033;-78
2021/06/12 11:35:48;;;;;;;5.32;3.45;;;;;;;;;;4990981;28;20035;-77
2021/06/12 11:38:14;;;;;;;3.60;3.30;;;;;;;;;;4992149;28;20026;-78
2021/06/12 11:40:49;;;;;;;8.00;3.88;;;;;;;;;;4990592;28;20395;-77
2021/06/12 11:43:38;;;;;;;6.05;3.33;;;;;;;;;;4995308;28;20049;-78
2021/06/12 11:46:12;;;;;;;5.57;3.70;;;;;;;;;;4994871;28;20472;-76
2021/06/12 11:48:50;;;;;;;3.85;3.08;;;;;;;;;;4992027;28;20064;-76
2021/06/12 11:51:32;;;;;;;5.15;3.67;;;;;;;;;;4990802;28;20026;-78
2021/06/12 11:54:21;;;;;;;3.78;2.92;;;;;;;;;;4992146;28;20026;-77
2021/06/12 11:56:57;;;;;;;2.90;2.60;;;;;;;;;;4990645;28;20030;-78
2021/06/12 11:59:25;;;;;;;4.50;3.00;;;;;;;;;;4992021;28;20241;-77
2021/06/12 12:01:58;;;;;;;3.42;2.92;;;;;;;;;;4990226;28;20030;-76
2021/06/12 12:04:26;;;;;;;3.58;2.75;;;;;;;;;;4992165;28;20032;-77
2021/06/12 12:06:54;;;;;;;3.85;3.10;;;;;;;;;;4990376;28;20030;-77
2021/06/12 12:09:33;;;;;;;5.47;3.25;;;;;;;;;;4993320;28;20030;-79
2021/06/12 12:12:05;;;;;;;5.57;3.70;;;;;;;;;;4991841;28;20026;-77
2021/06/12 12:14:42;;;;;;;5.35;3.08;;;;;;;;;;4974058;28;20050;-78
2021/06/12 12:17:25;;;;;;;3.78;3.40;;;;;;;;;;4990160;28;20141;-77
2021/06/12 12:20:09;;;;;;;3.95;3.08;;;;;;;;;;4989922;28;20093;-76
2021/06/12 12:22:41;;;;;;;6.00;3.25;;;;;;;;;;4991686;28;20031;-79
2021/06/12 12:25:11;;;;;;;4.85;3.03;;;;;;;;;;4990186;28;20106;-77
2021/06/12 12:27:37;;;;;;;4.05;3.05;;;;;;;;;;4990098;28;20026;-76
2021/06/12 12:30:05;;;;;;;7.78;3.22;;;;;;;;;;4989937;28;20563;-78
2021/06/12 12:32:31;;;;;;;7.63;3.42;;;;;;;;;;4990238;28;20390;-77
2021/06/12 12:35:10;;;;;;;5.65;2.78;;;;;;;;;;4989539;28;20041;-77
2021/06/12 12:37:35;;;;;;;7.88;3.42;;;;;;;;;;4991243;28;20427;-77
2021/06/12 12:40:01;;;;;;;3.05;2.75;;;;;;;;;;4990966;28;20058;-76
2021/06/12 12:42:26;;;;;;;3.95;2.70;;;;;;;;;;4991308;28;20031;-77
2021/06/12 12:44:54;;;;;;;2.80;2.60;;;;;;;;;;4989250;28;20058;-77
2021/06/12 12:47:26;;;;;;;5.95;2.83;;;;;;;;;;4989345;28;20514;-77
2021/06/12 12:49:52;;;;;;;4.72;2.80;;;;;;;;;;4989596;28;20448;-78
2021/06/12 12:52:27;;;;;;;3.35;2.70;;;;;;;;;;4973942;28;20022;-78
2021/06/12 12:55:01;;;;;;;2.55;2.35;;;;;;;;;;4990997;28;20029;-78
2021/06/12 12:57:51;;;;;;;3.42;2.70;;;;;;;;;;4989865;28;20022;-78
2021/06/12 13:00:24;;;;;;;3.10;2.60;;;;;;;;;;4989710;28;20060;-77
2021/06/12 13:02:51;;;;;;;5.70;3.30;;;;;;;;;;4989131;28;20066;-78
2021/06/12 13:05:18;;;;;;;3.45;2.47;;;;;;;;;;4990784;28;20442;-77
2021/06/12 13:07:54;;;;;;;5.90;2.35;;;;;;;;;;4988924;28;20042;-77
2021/06/12 13:10:28;;;;;;;2.50;2.28;;;;;;;;;;4990673;28;20046;-77
2021/06/12 13:12:56;;;;;;;6.40;2.85;;;;;;;;;;4989533;28;20026;-78
2021/06/12 13:15:22;;;;;;;5.60;2.70;;;;;;;;;;4991505;28;20041;-76
2021/06/12 13:17:47;;;;;;;7.28;2.67;;;;;;;;;;4988993;28;20299;-78
2021/06/12 13:20:20;;;;;;;2.67;2.42;;;;;;;;;;4989308;28;20498;-76
2021/06/12 13:22:46;;;;;;;7.03;3.13;;;;;;;;;;4989303;28;20031;-77
2021/06/12 13:25:11;;;;;;;4.53;2.53;;;;;;;;;;4992558;28;20381;-77
2021/06/12 13:27:45;;;;;;;4.50;2.83;;;;;;;;;;4993711;28;20064;-78
2021/06/12 13:30:17;;;;;;;5.97;3.58;;;;;;;;;;4990330;28;20025;-78
2021/06/12 13:32:48;;;;;;;7.45;2.80;;;;;;;;;;4988928;28;20479;-76
2021/06/12 13:35:26;;;;;;;3.40;2.67;;;;;;;;;;4990450;28;20104;-77
2021/06/12 13:38:12;;;;;;;4.32;3.15;;;;;;;;;;4989068;28;20537;-78
2021/06/12 13:40:52;;;;;;;5.18;3.63;;;;;;;;;;4989820;28;20124;-77
2021/06/12 13:43:37;;;;;;;4.65;2.72;;;;;;;;;;4990519;28;20081;-78
2021/06/12 13:46:10;;;;;;;3.92;2.60;;;;;;;;;;4988214;28;20050;-78
2021/06/12 13:48:36;;;;;;;5.80;2.63;;;;;;;;;;4989300;28;20030;-77
2021/06/12 13:51:02;;;;;;;4.68;2.53;;;;;;;;;;4988675;28;20497;-77
2021/06/12 13:53:38;;;;;;;2.88;2.28;;;;;;;;;;4988842;28;20030;-78
2021/06/12 13:56:18;;;;;;;2.33;2.13;;;;;;;;;;4973682;28;20439;-78
2021/06/12 13:58:44;;;;;;;4.53;2.05;;;;;;;;;;4988522;28;20030;-76
2021/06/12 14:01:11;;;;;;;4.85;2.60;;;;;;;;;;4988455;28;20030;-77
2021/06/12 14:03:37;;;;;;;2.95;2.65;;;;;;;;;;4988873;28;20037;-77
2021/06/12 14:06:04;;;;;;;5.60;2.22;;;;;;;;;;4989792;28;20060;-77
2021/06/12 14:08:30;;;;;;;3.88;2.45;;;;;;;;;;4988635;28;20113;-77
2021/06/12 14:10:56;;;;;;;4.78;2.30;;;;;;;;;;4989517;28;20026;-78
2021/06/12 14:13:21;;;;;;;2.35;2.10;;;;;;;;;;4988566;28;20088;-78
2021/06/12 14:15:47;;;;;;;6.15;4.05;;;;;;;;;;4989686;28;20022;-77
2021/06/12 14:18:12;;;;;;;4.75;3.20;;;;;;;;;;4989120;28;20383;-77
2021/06/12 14:20:38;;;;;;;4.63;2.05;;;;;;;;;;4990534;28;20018;-77
2021/06/12 14:23:04;;;;;;;2.30;2.10;;;;;;;;;;4989638;28;20061;-78
2021/06/12 14:25:32;;;;;;;3.22;2.28;;;;;;;;;;4988934;28;20445;-76
2021/06/12 14:27:59;;;;;;;9.07;2.50;;;;;;;;;;4988064;28;20041;-77
2021/06/12 14:30:28;;;;;;;4.28;3.13;;;;;;;;;;4989443;28;20194;-78
2021/06/12 14:32:54;;;;;;;4.35;2.60;;;;;;;;;;4987896;28;20073;-79
2021/06/12 14:35:20;;;;;;;8.57;2.65;;;;;;;;;;4989983;28;20549;-78
2021/06/12 14:37:45;;;;;;;3.35;2.20;;;;;;;;;;4989165;28;20040;-77
2021/06/12 14:40:12;;;;;;;8.85;3.70;;;;;;;;;;4989603;28;20022;-77
2021/06/12 14:42:37;;;;;;;3.15;2.35;;;;;;;;;;4971756;28;20053;-77
2021/06/12 14:45:05;;;;;;;4.22;2.50;;;;;;;;;;4988642;28;20026;-77